createdAt,value
2019-03-13T00:00:33.730Z,0.00
2019-03-13T00:01:33.716Z,0.00
2019-03-13T00:02:33.710Z,0.00
2019-03-13T00:03:33.694Z,0.00
2019-03-13T00:04:33.706Z,0.00
2019-03-13T00:05:33.686Z,0.00
2019-03-13T00:06:33.872Z,0.00
2019-03-13T00:07:33.661Z,0.00
2019-03-13T00:08:33.663Z,0.00
2019-03-13T00:09:33.673Z,0.00
2019-03-13T00:10:33.645Z,0.00
2019-03-13T00:11:33.630Z,0.00
2019-03-13T00:12:33.631Z,0.00
2019-03-13T00:13:33.632Z,0.00
2019-03-13T00:14:33.821Z,0.00
2019-03-13T00:15:33.622Z,0.00
2019-03-13T00:16:33.609Z,0.00
2019-03-13T00:17:33.610Z,0.00
2019-03-13T00:18:33.804Z,0.00
2019-03-13T00:19:33.576Z,0.00
2019-03-13T00:20:33.570Z,0.00
2019-03-13T00:21:33.572Z,0.00
2019-03-13T00:22:33.561Z,0.00
2019-03-13T00:23:33.553Z,0.00
2019-03-13T00:24:33.543Z,0.00
2019-03-13T00:25:33.756Z,0.00
2019-03-13T00:26:33.535Z,0.00
2019-03-13T00:27:33.727Z,0.00
2019-03-13T00:28:33.518Z,0.00
2019-03-13T00:29:33.516Z,0.00
2019-03-13T00:30:33.515Z,0.00
2019-03-13T00:31:33.699Z,0.00
2019-03-13T00:32:33.518Z,0.00
2019-03-13T00:33:33.483Z,0.00
2019-03-13T00:34:33.486Z,0.00
2019-03-13T00:35:33.669Z,0.00
2019-03-13T00:36:33.468Z,0.00
2019-03-13T00:37:33.446Z,0.00
2019-03-13T00:38:33.456Z,0.00
2019-03-13T00:39:33.444Z,0.00
2019-03-13T00:40:33.426Z,0.00
2019-03-13T00:41:33.425Z,0.00
2019-03-13T00:42:33.425Z,0.00
2019-03-13T00:43:33.410Z,0.00
2019-03-13T00:44:33.620Z,0.00
2019-03-13T00:45:33.393Z,0.00
2019-03-13T00:46:33.386Z,0.00
2019-03-13T00:47:33.379Z,0.00
2019-03-13T00:48:33.387Z,0.00
2019-03-13T00:49:33.366Z,0.00
2019-03-13T00:50:33.564Z,0.00
2019-03-13T00:51:36.905Z,0.00
2019-03-13T00:52:33.552Z,0.00
2019-03-13T00:53:33.334Z,0.00
2019-03-13T00:54:33.330Z,0.00
2019-03-13T00:55:33.329Z,0.00
2019-03-13T00:56:33.337Z,0.00
2019-03-13T00:57:33.308Z,0.00
2019-03-13T00:58:33.305Z,0.00
2019-03-13T00:59:33.305Z,0.00
2019-03-13T01:00:33.288Z,0.00
2019-03-13T01:01:33.297Z,0.00
2019-03-13T01:02:33.290Z,0.00
2019-03-13T01:03:33.283Z,0.00
2019-03-13T01:04:33.280Z,0.00
2019-03-13T01:05:33.273Z,0.00
2019-03-13T01:06:33.264Z,0.00
2019-03-13T01:07:33.266Z,0.00
2019-03-13T01:08:33.239Z,0.00
2019-03-13T01:09:33.243Z,0.00
2019-03-13T01:10:33.216Z,0.00
2019-03-13T01:11:33.222Z,0.00
2019-03-13T01:12:33.223Z,0.00
2019-03-13T01:13:33.198Z,0.00
2019-03-13T01:14:33.191Z,0.00
2019-03-13T01:15:33.183Z,0.00
2019-03-13T01:16:33.177Z,0.00
2019-03-13T01:17:33.169Z,0.00
2019-03-13T01:18:33.189Z,0.00
2019-03-13T01:19:33.153Z,0.00
2019-03-13T01:20:33.154Z,0.00
2019-03-13T01:21:33.153Z,0.00
2019-03-13T01:22:33.138Z,0.00
2019-03-13T01:23:33.131Z,0.00
2019-03-13T01:24:33.332Z,0.00
2019-03-13T01:25:33.126Z,0.00
2019-03-13T01:26:33.329Z,0.00
2019-03-13T01:27:33.120Z,0.00
2019-03-13T01:28:33.114Z,0.00
2019-03-13T01:29:33.093Z,0.00
2019-03-13T01:30:33.086Z,0.00
2019-03-13T01:31:33.075Z,0.00
2019-03-13T01:32:33.072Z,0.00
2019-03-13T01:33:33.064Z,0.00
2019-03-13T01:34:33.260Z,0.00
2019-03-13T01:35:33.053Z,0.00
2019-03-13T01:36:33.050Z,0.00
2019-03-13T01:37:33.038Z,0.00
2019-03-13T01:38:33.040Z,0.00
2019-03-13T01:39:33.029Z,0.00
2019-03-13T01:40:33.040Z,0.00
2019-03-13T01:41:33.016Z,0.00
2019-03-13T01:42:33.005Z,0.00
2019-03-13T01:43:32.991Z,0.00
2019-03-13T01:44:32.982Z,0.00
2019-03-13T01:45:32.983Z,0.00
2019-03-13T01:46:32.978Z,0.00
2019-03-13T01:47:32.972Z,0.00
2019-03-13T01:48:32.955Z,0.00
2019-03-13T01:49:32.961Z,0.00
2019-03-13T01:50:33.140Z,0.00
2019-03-13T01:51:32.940Z,0.00
2019-03-13T01:52:32.929Z,0.00
2019-03-13T01:53:32.920Z,0.00
2019-03-13T01:54:32.925Z,0.00
2019-03-13T01:55:32.918Z,0.00
2019-03-13T01:56:33.115Z,0.00
2019-03-13T01:57:32.900Z,0.00
2019-03-13T01:58:32.905Z,0.00
2019-03-13T01:59:32.897Z,0.00
2019-03-13T02:00:32.877Z,0.00
2019-03-13T02:01:32.883Z,0.00
2019-03-13T02:02:32.875Z,0.00
2019-03-13T02:03:32.861Z,0.00
2019-03-13T02:04:32.853Z,0.00
2019-03-13T02:05:33.058Z,0.00
2019-03-13T02:06:33.035Z,0.00
2019-03-13T02:07:32.834Z,0.00
2019-03-13T02:08:32.822Z,0.00
2019-03-13T02:09:32.831Z,0.00
2019-03-13T02:10:32.820Z,0.00
2019-03-13T02:11:32.800Z,0.00
2019-03-13T02:12:33.009Z,0.00
2019-03-13T02:13:32.799Z,0.00
2019-03-13T02:14:32.791Z,0.00
2019-03-13T02:15:32.978Z,0.00
2019-03-13T02:16:32.780Z,0.00
2019-03-13T02:17:32.776Z,0.00
2019-03-13T02:18:32.781Z,0.00
2019-03-13T02:19:32.757Z,0.00
2019-03-13T02:20:32.753Z,0.00
2019-03-13T02:21:32.736Z,0.00
2019-03-13T02:22:32.729Z,0.00
2019-03-13T02:23:32.721Z,0.00
2019-03-13T02:24:32.726Z,0.00
2019-03-13T02:25:32.927Z,0.00
2019-03-13T02:26:32.897Z,0.00
2019-03-13T02:27:32.690Z,0.00
2019-03-13T02:28:32.894Z,0.00
2019-03-13T02:29:32.674Z,0.00
2019-03-13T02:30:32.890Z,0.00
2019-03-13T02:31:32.869Z,0.00
2019-03-13T02:32:32.693Z,0.00
2019-03-13T02:33:32.652Z,0.00
2019-03-13T02:34:32.668Z,0.00
2019-03-13T02:35:32.638Z,0.00
2019-03-13T02:36:32.630Z,0.00
2019-03-13T02:37:32.636Z,0.00
2019-03-13T02:38:32.624Z,0.00
2019-03-13T02:39:32.609Z,0.00
2019-03-13T02:40:32.605Z,0.00
2019-03-13T02:41:32.599Z,0.00
2019-03-13T02:42:32.595Z,0.00
2019-03-13T02:43:32.587Z,0.00
2019-03-13T02:44:32.801Z,0.00
2019-03-13T02:45:32.602Z,0.00
2019-03-13T02:46:32.762Z,0.00
2019-03-13T02:47:32.553Z,0.00
2019-03-13T02:48:32.555Z,0.00
2019-03-13T02:49:32.740Z,0.00
2019-03-13T02:50:32.737Z,0.00
2019-03-13T02:51:32.521Z,0.00
2019-03-13T02:52:32.518Z,0.00
2019-03-13T02:53:32.517Z,0.00
2019-03-13T02:54:32.711Z,0.00
2019-03-13T02:55:32.511Z,0.00
2019-03-13T02:56:32.491Z,0.00
2019-03-13T02:57:32.490Z,0.00
2019-03-13T02:58:32.474Z,0.00
2019-03-13T02:59:32.480Z,0.00
2019-03-13T03:00:32.456Z,0.00
2019-03-13T03:01:32.467Z,0.00
2019-03-13T03:02:32.654Z,0.00
2019-03-13T03:03:32.450Z,0.00
2019-03-13T03:04:32.431Z,0.00
2019-03-13T03:05:32.430Z,0.00
2019-03-13T03:06:32.642Z,0.00
2019-03-13T03:07:32.422Z,0.00
2019-03-13T03:08:32.413Z,0.00
2019-03-13T03:09:32.408Z,0.00
2019-03-13T03:10:32.597Z,0.00
2019-03-13T03:11:32.386Z,0.00
2019-03-13T03:12:32.380Z,0.00
2019-03-13T03:13:32.377Z,0.00
2019-03-13T03:14:32.569Z,0.00
2019-03-13T03:15:32.565Z,0.00
2019-03-13T03:16:32.358Z,0.00
2019-03-13T03:17:32.354Z,0.00
2019-03-13T03:18:32.348Z,0.00
2019-03-13T03:19:32.327Z,0.00
2019-03-13T03:20:32.337Z,0.00
2019-03-13T03:21:32.351Z,0.00
2019-03-13T03:22:32.321Z,0.00
2019-03-13T03:23:32.545Z,0.00
2019-03-13T03:24:32.323Z,0.00
2019-03-13T03:25:32.438Z,0.00
2019-03-13T03:26:32.288Z,0.00
2019-03-13T03:27:32.293Z,0.00
2019-03-13T03:28:32.290Z,0.00
2019-03-13T03:29:32.275Z,0.00
2019-03-13T03:30:32.268Z,0.00
2019-03-13T03:31:32.281Z,0.00
2019-03-13T03:32:32.241Z,0.00
2019-03-13T03:33:32.251Z,0.00
2019-03-13T03:34:32.450Z,0.00
2019-03-13T03:35:32.441Z,0.00
2019-03-13T03:36:32.235Z,0.00
2019-03-13T03:37:32.208Z,0.00
2019-03-13T03:38:32.208Z,0.00
2019-03-13T03:39:32.199Z,0.00
2019-03-13T03:40:32.191Z,0.00
2019-03-13T03:41:32.196Z,0.00
2019-03-13T03:42:32.195Z,0.00
2019-03-13T03:43:40.045Z,0.00
2019-03-13T03:44:32.166Z,0.00
2019-03-13T03:45:32.168Z,0.00
2019-03-13T03:46:32.147Z,0.00
2019-03-13T03:47:32.158Z,0.00
2019-03-13T03:48:32.359Z,0.00
2019-03-13T03:49:32.357Z,0.00
2019-03-13T03:50:32.128Z,0.00
2019-03-13T03:51:32.114Z,0.00
2019-03-13T03:52:32.127Z,0.00
2019-03-13T03:53:32.108Z,0.00
2019-03-13T03:54:32.104Z,0.00
2019-03-13T03:55:32.095Z,0.00
2019-03-13T03:56:32.086Z,0.00
2019-03-13T03:57:32.069Z,0.00
2019-03-13T03:58:32.074Z,0.00
2019-03-13T03:59:32.070Z,0.00
2019-03-13T04:00:32.063Z,0.00
2019-03-13T04:01:32.048Z,0.00
2019-03-13T04:02:32.057Z,0.00
2019-03-13T04:03:32.033Z,0.00
2019-03-13T04:04:32.030Z,0.00
2019-03-13T04:05:32.024Z,0.00
2019-03-13T04:06:32.026Z,0.00
2019-03-13T04:07:32.006Z,0.00
2019-03-13T04:08:32.214Z,0.00
2019-03-13T04:09:32.004Z,0.00
2019-03-13T04:10:32.190Z,0.00
2019-03-13T04:11:31.975Z,0.00
2019-03-13T04:12:31.988Z,0.00
2019-03-13T04:13:31.974Z,0.00
2019-03-13T04:14:31.960Z,0.00
2019-03-13T04:16:31.947Z,0.00
2019-03-13T04:17:31.965Z,0.00
2019-03-13T04:18:31.949Z,0.00
2019-03-13T04:19:31.936Z,0.00
2019-03-13T04:20:31.926Z,0.00
2019-03-13T04:21:31.921Z,0.00
2019-03-13T04:22:31.926Z,0.00
2019-03-13T04:23:31.904Z,0.00
2019-03-13T04:24:32.106Z,0.00
2019-03-13T04:25:32.082Z,0.00
2019-03-13T04:26:32.082Z,0.00
2019-03-13T04:27:31.878Z,0.00
2019-03-13T04:28:31.863Z,0.00
2019-03-13T04:29:31.857Z,0.00
2019-03-13T04:30:31.874Z,0.00
2019-03-13T04:31:32.051Z,0.00
2019-03-13T04:32:31.877Z,0.00
2019-03-13T04:33:31.845Z,0.00
2019-03-13T04:34:31.818Z,0.00
2019-03-13T04:35:32.021Z,0.00
2019-03-13T04:36:31.811Z,0.00
2019-03-13T04:37:31.803Z,0.00
2019-03-13T04:38:31.796Z,0.00
2019-03-13T04:39:31.783Z,0.00
2019-03-13T04:40:31.778Z,0.00
2019-03-13T04:41:31.973Z,0.00
2019-03-13T04:42:31.768Z,0.00
2019-03-13T04:43:31.803Z,0.00
2019-03-13T04:44:31.763Z,0.00
2019-03-13T04:45:31.763Z,0.00
2019-03-13T04:46:31.740Z,0.00
2019-03-13T04:47:31.728Z,0.00
2019-03-13T04:48:31.737Z,0.00
2019-03-13T04:49:31.716Z,0.00
2019-03-13T04:50:31.720Z,0.00
2019-03-13T04:51:31.909Z,0.00
2019-03-13T04:52:31.895Z,0.00
2019-03-13T04:53:31.688Z,0.00
2019-03-13T04:54:31.881Z,0.00
2019-03-13T04:55:31.875Z,0.00
2019-03-13T04:56:31.870Z,0.00
2019-03-13T04:57:31.666Z,0.00
2019-03-13T04:58:31.660Z,0.00
2019-03-13T04:59:31.853Z,0.00
2019-03-13T05:00:31.667Z,0.00
2019-03-13T05:01:31.657Z,0.00
2019-03-13T05:02:31.626Z,0.00
2019-03-13T05:03:31.622Z,0.00
2019-03-13T05:04:31.609Z,0.00
2019-03-13T05:05:31.622Z,0.00
2019-03-13T05:06:31.612Z,0.00
2019-03-13T05:07:31.589Z,0.00
2019-03-13T05:08:44.098Z,0.00
2019-03-13T05:09:31.583Z,0.00
2019-03-13T05:10:31.628Z,0.00
2019-03-13T05:11:31.563Z,0.00
2019-03-13T05:12:31.558Z,0.00
2019-03-13T05:13:31.570Z,0.00
2019-03-13T05:14:32.804Z,0.00
2019-03-13T05:15:31.544Z,0.00
2019-03-13T05:16:31.569Z,0.00
2019-03-13T05:17:31.542Z,0.00
2019-03-13T05:18:31.527Z,0.00
2019-03-13T05:19:31.516Z,0.00
2019-03-13T05:20:31.520Z,0.00
2019-03-13T05:21:31.504Z,0.00
2019-03-13T05:22:31.485Z,0.00
2019-03-13T05:23:31.578Z,0.00
2019-03-13T05:24:31.488Z,0.00
2019-03-13T05:25:31.491Z,0.00
2019-03-13T05:26:31.686Z,0.00
2019-03-13T05:27:31.680Z,0.00
2019-03-13T05:28:31.446Z,0.00
2019-03-13T05:29:31.455Z,0.00
2019-03-13T05:30:31.441Z,0.00
2019-03-13T05:31:31.432Z,0.00
2019-03-13T05:32:31.427Z,0.00
2019-03-13T05:33:31.619Z,0.00
2019-03-13T05:34:31.612Z,0.00
2019-03-13T05:35:31.401Z,0.00
2019-03-13T05:36:31.390Z,0.00
2019-03-13T05:37:31.392Z,4.00
2019-03-13T05:38:31.379Z,0.00
2019-03-13T05:39:31.377Z,0.00
2019-03-13T05:40:31.376Z,4.00
2019-03-13T05:41:31.566Z,4.00
2019-03-13T05:42:31.554Z,4.00
2019-03-13T05:43:31.359Z,4.00
2019-03-13T05:44:31.340Z,4.00
2019-03-13T05:45:31.537Z,8.00
2019-03-13T05:46:31.336Z,8.00
2019-03-13T05:47:31.325Z,8.00
2019-03-13T05:48:31.315Z,8.00
2019-03-13T05:49:31.512Z,4.00
2019-03-13T05:50:31.731Z,8.00
2019-03-13T05:51:31.291Z,8.00
2019-03-13T05:52:31.284Z,8.00
2019-03-13T05:53:31.285Z,8.00
2019-03-13T05:54:31.485Z,8.00
2019-03-13T05:55:31.282Z,12.00
2019-03-13T05:56:31.471Z,8.00
2019-03-13T05:57:31.266Z,12.00
2019-03-13T05:58:31.456Z,12.00
2019-03-13T05:59:31.468Z,16.00
2019-03-13T06:00:31.240Z,16.00
2019-03-13T06:01:31.227Z,16.00
2019-03-13T06:02:31.221Z,20.00
2019-03-13T06:03:31.215Z,20.00
2019-03-13T06:04:31.212Z,24.00
2019-03-13T06:05:31.200Z,28.00
2019-03-13T06:06:31.199Z,32.00
2019-03-13T06:07:31.189Z,28.00
2019-03-13T06:08:31.186Z,28.00
2019-03-13T06:09:31.179Z,28.00
2019-03-13T06:10:31.173Z,36.00
2019-03-13T06:11:31.176Z,36.00
2019-03-13T06:12:31.152Z,40.00
2019-03-13T06:13:31.157Z,48.00
2019-03-13T06:14:31.157Z,48.00
2019-03-13T06:15:31.163Z,52.00
2019-03-13T06:16:31.145Z,48.00
2019-03-13T06:17:31.136Z,56.00
2019-03-13T06:18:31.118Z,56.00
2019-03-13T06:19:31.134Z,64.00
2019-03-13T06:20:31.131Z,60.00
2019-03-13T06:21:31.314Z,60.00
2019-03-13T06:22:31.092Z,56.00
2019-03-13T06:23:31.110Z,56.00
2019-03-13T06:24:31.099Z,56.00
2019-03-13T06:25:31.075Z,48.00
2019-03-13T06:26:31.077Z,48.00
2019-03-13T06:27:31.056Z,48.00
2019-03-13T06:28:31.066Z,60.00
2019-03-13T06:29:31.944Z,60.00
2019-03-13T06:30:31.046Z,68.00
2019-03-13T06:31:31.026Z,80.00
2019-03-13T06:32:31.036Z,104.00
2019-03-13T06:33:31.019Z,84.00
2019-03-13T06:34:31.007Z,68.00
2019-03-13T06:35:31.016Z,68.00
2019-03-13T06:36:31.006Z,64.00
2019-03-13T06:37:30.987Z,56.00
2019-03-13T06:38:30.985Z,60.00
2019-03-13T06:39:32.133Z,76.00
2019-03-13T06:40:30.968Z,68.00
2019-03-13T06:41:30.962Z,92.00
2019-03-13T06:42:30.957Z,80.00
2019-03-13T06:43:30.950Z,68.00
2019-03-13T06:44:30.945Z,64.00
2019-03-13T06:45:30.932Z,72.00
2019-03-13T06:46:31.136Z,76.00
2019-03-13T06:47:30.920Z,100.00
2019-03-13T06:48:30.916Z,120.00
2019-03-13T06:49:30.956Z,148.00
2019-03-13T06:50:31.102Z,160.00
2019-03-13T06:51:30.890Z,152.00
2019-03-13T06:52:31.817Z,160.00
2019-03-13T06:53:30.896Z,168.00
2019-03-13T06:54:31.083Z,164.00
2019-03-13T06:55:31.075Z,176.00
2019-03-13T06:56:30.863Z,164.00
2019-03-13T06:57:30.849Z,164.00
2019-03-13T06:58:30.844Z,164.00
2019-03-13T06:59:31.039Z,164.00
2019-03-13T07:00:30.870Z,140.00
2019-03-13T07:01:30.822Z,128.00
2019-03-13T07:02:30.827Z,116.00
2019-03-13T07:03:30.832Z,132.00
2019-03-13T07:04:31.023Z,124.00
2019-03-13T07:05:31.017Z,116.00
2019-03-13T07:06:30.824Z,116.00
2019-03-13T07:07:30.806Z,132.00
2019-03-13T07:08:30.993Z,128.00
2019-03-13T07:09:30.803Z,140.00
2019-03-13T07:10:30.768Z,140.00
2019-03-13T07:11:30.769Z,140.00
2019-03-13T07:12:30.969Z,140.00
2019-03-13T07:13:30.768Z,136.00
2019-03-13T07:14:30.750Z,140.00
2019-03-13T07:15:30.736Z,156.00
2019-03-13T07:16:30.756Z,180.00
2019-03-13T07:17:30.934Z,180.00
2019-03-13T07:18:30.742Z,204.00
2019-03-13T07:19:30.715Z,244.00
2019-03-13T07:20:30.932Z,272.00
2019-03-13T07:21:30.693Z,324.00
2019-03-13T07:22:30.705Z,296.00
2019-03-13T07:23:30.694Z,260.00
2019-03-13T07:24:30.895Z,224.00
2019-03-13T07:25:30.669Z,176.00
2019-03-13T07:26:30.876Z,220.00
2019-03-13T07:27:30.651Z,268.00
2019-03-13T07:28:30.643Z,284.00
2019-03-13T07:29:30.641Z,348.00
2019-03-13T07:30:30.632Z,288.00
2019-03-13T07:31:30.657Z,300.00
2019-03-13T07:32:30.631Z,344.00
2019-03-13T07:33:30.633Z,368.00
2019-03-13T07:34:30.609Z,284.00
2019-03-13T07:35:30.613Z,328.00
2019-03-13T07:36:30.598Z,300.00
2019-03-13T07:37:30.595Z,280.00
2019-03-13T07:38:30.786Z,312.00
2019-03-13T07:39:30.779Z,348.00
2019-03-13T07:40:30.575Z,328.00
2019-03-13T07:41:30.633Z,324.00
2019-03-13T07:42:30.558Z,356.00
2019-03-13T07:43:30.548Z,420.00
2019-03-13T07:44:30.552Z,368.00
2019-03-13T07:45:30.530Z,396.00
2019-03-13T07:46:30.527Z,376.00
2019-03-13T07:47:30.530Z,424.00
2019-03-13T07:48:30.718Z,400.00
2019-03-13T07:49:30.718Z,524.00
2019-03-13T07:50:30.503Z,424.00
2019-03-13T07:51:30.713Z,364.00
2019-03-13T07:52:32.710Z,368.00
2019-03-13T07:53:30.503Z,364.00
2019-03-13T07:54:30.486Z,388.00
2019-03-13T07:55:30.685Z,436.00
2019-03-13T07:56:30.670Z,344.00
2019-03-13T07:57:30.455Z,244.00
2019-03-13T07:58:30.448Z,268.00
2019-03-13T07:59:30.457Z,268.00
2019-03-13T08:00:30.435Z,316.00
2019-03-13T08:01:30.434Z,352.00
2019-03-13T08:02:30.435Z,292.00
2019-03-13T08:03:30.442Z,288.00
2019-03-13T08:04:30.438Z,312.00
2019-03-13T08:05:30.408Z,284.00
2019-03-13T08:06:30.392Z,240.00
2019-03-13T08:07:30.397Z,244.00
2019-03-13T08:08:30.386Z,212.00
2019-03-13T08:09:30.596Z,212.00
2019-03-13T08:10:30.383Z,252.00
2019-03-13T08:11:30.390Z,268.00
2019-03-13T08:12:30.373Z,268.00
2019-03-13T08:13:30.359Z,284.00
2019-03-13T08:14:30.358Z,248.00
2019-03-13T08:15:30.335Z,200.00
2019-03-13T08:16:30.335Z,180.00
2019-03-13T08:17:30.321Z,160.00
2019-03-13T08:18:30.347Z,136.00
2019-03-13T08:19:30.514Z,192.00
2019-03-13T08:20:30.505Z,240.00
2019-03-13T08:21:30.317Z,272.00
2019-03-13T08:22:30.489Z,216.00
2019-03-13T08:23:30.281Z,228.00
2019-03-13T08:24:30.275Z,208.00
2019-03-13T08:25:30.334Z,188.00
2019-03-13T08:26:30.273Z,168.00
2019-03-13T08:27:30.260Z,152.00
2019-03-13T08:28:30.312Z,160.00
2019-03-13T08:29:30.450Z,168.00
2019-03-13T08:30:30.236Z,160.00
2019-03-13T08:31:30.231Z,164.00
2019-03-13T08:32:30.429Z,176.00
2019-03-13T08:33:30.223Z,172.00
2019-03-13T08:34:30.213Z,160.00
2019-03-13T08:35:30.217Z,172.00
2019-03-13T08:36:30.222Z,140.00
2019-03-13T08:37:30.196Z,144.00
2019-03-13T08:38:30.391Z,148.00
2019-03-13T08:39:30.177Z,148.00
2019-03-13T08:40:30.184Z,164.00
2019-03-13T08:41:30.380Z,232.00
2019-03-13T08:42:30.198Z,232.00
2019-03-13T08:43:30.357Z,236.00
2019-03-13T08:44:30.347Z,216.00
2019-03-13T08:45:30.138Z,248.00
2019-03-13T08:46:30.140Z,216.00
2019-03-13T08:47:30.120Z,208.00
2019-03-13T08:48:30.124Z,172.00
2019-03-13T08:49:30.322Z,172.00
2019-03-13T08:50:30.126Z,164.00
2019-03-13T08:51:30.106Z,152.00
2019-03-13T08:52:30.097Z,140.00
2019-03-13T08:53:30.078Z,132.00
2019-03-13T08:54:30.298Z,140.00
2019-03-13T08:55:30.086Z,128.00
2019-03-13T08:56:30.071Z,128.00
2019-03-13T08:57:30.059Z,148.00
2019-03-13T08:58:30.051Z,184.00
2019-03-13T08:59:30.051Z,216.00
2019-03-13T09:00:30.041Z,236.00
2019-03-13T09:01:30.050Z,236.00
2019-03-13T09:02:30.030Z,324.00
2019-03-13T09:03:30.035Z,264.00
2019-03-13T09:04:30.017Z,328.00
2019-03-13T09:05:30.225Z,384.00
2019-03-13T09:06:29.997Z,352.00
2019-03-13T09:07:30.211Z,356.00
2019-03-13T09:08:29.984Z,420.00
2019-03-13T09:09:29.981Z,396.00
2019-03-13T09:10:29.972Z,376.00
2019-03-13T09:11:29.967Z,420.00
2019-03-13T09:12:29.984Z,380.00
2019-03-13T09:13:29.967Z,468.00
2019-03-13T09:14:29.945Z,436.00
2019-03-13T09:15:29.968Z,444.00
2019-03-13T09:16:29.950Z,416.00
2019-03-13T09:17:29.949Z,376.00
2019-03-13T09:18:29.931Z,276.00
2019-03-13T09:19:29.933Z,264.00
2019-03-13T09:20:29.912Z,244.00
2019-03-13T09:21:30.358Z,220.00
2019-03-13T09:22:29.894Z,216.00
2019-03-13T09:23:29.895Z,180.00
2019-03-13T09:24:29.890Z,164.00
2019-03-13T09:25:29.877Z,144.00
2019-03-13T09:26:29.895Z,136.00
2019-03-13T09:27:29.868Z,172.00
2019-03-13T09:28:29.869Z,164.00
2019-03-13T09:29:29.994Z,168.00
2019-03-13T09:30:29.848Z,184.00
2019-03-13T09:31:29.847Z,192.00
2019-03-13T09:32:29.827Z,212.00
2019-03-13T09:33:29.820Z,248.00
2019-03-13T09:34:29.821Z,228.00
2019-03-13T09:35:29.808Z,232.00
2019-03-13T09:36:29.795Z,212.00
2019-03-13T09:37:29.793Z,224.00
2019-03-13T09:38:29.796Z,248.00
2019-03-13T09:39:29.793Z,312.00
2019-03-13T09:40:29.787Z,324.00
2019-03-13T09:41:29.773Z,360.00
2019-03-13T09:42:29.767Z,340.00
2019-03-13T09:43:29.781Z,380.00
2019-03-13T09:44:29.751Z,332.00
2019-03-13T09:45:29.751Z,348.00
2019-03-13T09:46:29.743Z,360.00
2019-03-13T09:47:29.731Z,316.00
2019-03-13T09:48:29.733Z,300.00
2019-03-13T09:49:29.717Z,288.00
2019-03-13T09:50:29.727Z,292.00
2019-03-13T09:51:29.713Z,264.00
2019-03-13T09:52:29.708Z,284.00
2019-03-13T09:53:29.720Z,296.00
2019-03-13T09:54:29.701Z,276.00
2019-03-13T09:55:29.682Z,280.00
2019-03-13T09:56:29.668Z,284.00
2019-03-13T09:57:29.665Z,308.00
2019-03-13T09:58:29.659Z,320.00
2019-03-13T09:59:42.392Z,320.00
2019-03-13T10:00:29.649Z,308.00
2019-03-13T10:01:29.664Z,364.00
2019-03-13T10:02:29.642Z,272.00
2019-03-13T10:03:29.625Z,284.00
2019-03-13T10:04:29.616Z,276.00
2019-03-13T10:05:29.613Z,280.00
2019-03-13T10:06:29.608Z,312.00
2019-03-13T10:07:29.605Z,292.00
2019-03-13T10:08:29.591Z,260.00
2019-03-13T10:09:29.593Z,284.00
2019-03-13T10:10:29.591Z,288.00
2019-03-13T10:11:29.593Z,300.00
2019-03-13T10:12:29.770Z,348.00
2019-03-13T10:13:29.559Z,352.00
2019-03-13T10:14:29.562Z,280.00
2019-03-13T10:15:29.545Z,348.00
2019-03-13T10:16:29.538Z,296.00
2019-03-13T10:17:29.529Z,272.00
2019-03-13T10:18:29.519Z,340.00
2019-03-13T10:19:29.515Z,328.00
2019-03-13T10:20:29.540Z,348.00
2019-03-13T10:21:29.709Z,392.00
2019-03-13T10:22:29.499Z,448.00
2019-03-13T10:23:29.709Z,436.00
2019-03-13T10:24:29.693Z,432.00
2019-03-13T10:25:29.472Z,436.00
2019-03-13T10:26:29.473Z,368.00
2019-03-13T10:27:29.467Z,288.00
2019-03-13T10:28:29.682Z,320.00
2019-03-13T10:29:29.458Z,292.00
2019-03-13T10:30:29.640Z,404.00
2019-03-13T10:31:29.648Z,332.00
2019-03-13T10:32:29.646Z,348.00
2019-03-13T10:33:29.417Z,352.00
2019-03-13T10:34:29.419Z,364.00
2019-03-13T10:35:29.409Z,344.00
2019-03-13T10:36:29.398Z,320.00
2019-03-13T10:37:29.605Z,384.00
2019-03-13T10:38:29.383Z,376.00
2019-03-13T10:39:29.385Z,360.00
2019-03-13T10:40:29.384Z,472.00
2019-03-13T10:41:29.366Z,436.00
2019-03-13T10:42:29.369Z,504.00
2019-03-13T10:43:29.352Z,464.00
2019-03-13T10:44:29.353Z,452.00
2019-03-13T10:45:29.345Z,488.00
2019-03-13T10:46:29.331Z,432.00
2019-03-13T10:47:29.322Z,412.00
2019-03-13T10:48:29.336Z,564.00
2019-03-13T10:49:29.308Z,500.00
2019-03-13T10:50:29.317Z,608.00
2019-03-13T10:51:29.506Z,516.00
2019-03-13T10:52:29.511Z,476.00
2019-03-13T10:53:29.283Z,536.00
2019-03-13T10:54:29.493Z,568.00
2019-03-13T10:55:29.488Z,764.00
2019-03-13T10:56:29.264Z,572.00
2019-03-13T10:57:29.259Z,464.00
2019-03-13T10:58:29.452Z,484.00
2019-03-13T10:59:29.447Z,524.00
2019-03-13T11:00:29.238Z,600.00
2019-03-13T11:01:29.450Z,476.00
2019-03-13T11:02:29.224Z,556.00
2019-03-13T11:03:29.227Z,540.00
2019-03-13T11:04:29.222Z,448.00
2019-03-13T11:05:29.222Z,452.00
2019-03-13T11:06:29.199Z,480.00
2019-03-13T11:07:29.210Z,576.00
2019-03-13T11:08:29.192Z,572.00
2019-03-13T11:09:29.193Z,484.00
2019-03-13T11:10:29.245Z,556.00
2019-03-13T11:11:29.189Z,596.00
2019-03-13T11:12:29.158Z,684.00
2019-03-13T11:13:29.161Z,540.00
2019-03-13T11:14:29.140Z,532.00
2019-03-13T11:15:29.148Z,576.00
2019-03-13T11:16:29.133Z,484.00
2019-03-13T11:17:29.143Z,516.00
2019-03-13T11:18:29.112Z,488.00
2019-03-13T11:19:29.125Z,512.00
2019-03-13T11:20:29.109Z,540.00
2019-03-13T11:21:29.094Z,496.00
2019-03-13T11:22:29.105Z,600.00
2019-03-13T11:23:29.087Z,516.00
2019-03-13T11:24:29.088Z,584.00
2019-03-13T11:25:29.089Z,532.00
2019-03-13T11:26:29.263Z,540.00
2019-03-13T11:27:29.060Z,592.00
2019-03-13T11:28:29.069Z,604.00
2019-03-13T11:29:29.041Z,548.00
2019-03-13T11:30:29.055Z,508.00
2019-03-13T11:31:29.029Z,560.00
2019-03-13T11:32:29.029Z,540.00
2019-03-13T11:33:29.035Z,440.00
2019-03-13T11:34:29.035Z,460.00
2019-03-13T11:35:29.209Z,528.00
2019-03-13T11:36:29.019Z,616.00
2019-03-13T11:37:29.030Z,516.00
2019-03-13T11:38:28.996Z,464.00
2019-03-13T11:39:29.011Z,360.00
2019-03-13T11:40:28.975Z,328.00
2019-03-13T11:41:28.960Z,336.00
2019-03-13T11:42:28.964Z,400.00
2019-03-13T11:43:28.969Z,360.00
2019-03-13T11:44:28.941Z,348.00
2019-03-13T11:45:28.938Z,424.00
2019-03-13T11:46:28.937Z,428.00
2019-03-13T11:47:41.453Z,392.00
2019-03-13T11:48:28.924Z,360.00
2019-03-13T11:49:29.120Z,324.00
2019-03-13T11:50:28.908Z,368.00
2019-03-13T11:51:28.901Z,312.00
2019-03-13T11:52:28.915Z,492.00
2019-03-13T11:53:28.915Z,352.00
2019-03-13T11:54:28.884Z,432.00
2019-03-13T11:55:28.978Z,312.00
2019-03-13T11:56:28.880Z,352.00
2019-03-13T11:57:28.860Z,344.00
2019-03-13T11:58:28.851Z,380.00
2019-03-13T11:59:29.063Z,440.00
2019-03-13T12:00:28.853Z,384.00
2019-03-13T12:01:28.863Z,424.00
2019-03-13T12:02:28.832Z,404.00
2019-03-13T12:03:28.839Z,612.00
2019-03-13T12:04:28.824Z,420.00
2019-03-13T12:05:28.809Z,532.00
2019-03-13T12:06:28.803Z,592.00
2019-03-13T12:07:28.800Z,328.00
2019-03-13T12:08:28.788Z,312.00
2019-03-13T12:09:28.796Z,352.00
2019-03-13T12:10:28.791Z,364.00
2019-03-13T12:11:28.772Z,364.00
2019-03-13T12:12:28.773Z,320.00
2019-03-13T12:13:28.989Z,344.00
2019-03-13T12:14:28.752Z,404.00
2019-03-13T12:15:28.743Z,432.00
2019-03-13T12:16:28.738Z,432.00
2019-03-13T12:17:28.736Z,420.00
2019-03-13T12:18:28.735Z,408.00
2019-03-13T12:19:28.736Z,508.00
2019-03-13T12:20:28.711Z,464.00
2019-03-13T12:21:28.722Z,464.00
2019-03-13T12:22:28.705Z,600.00
2019-03-13T12:23:28.714Z,536.00
2019-03-13T12:24:28.686Z,432.00
2019-03-13T12:25:28.903Z,372.00
2019-03-13T12:26:28.673Z,364.00
2019-03-13T12:27:28.670Z,376.00
2019-03-13T12:28:28.662Z,372.00
2019-03-13T12:29:28.656Z,316.00
2019-03-13T12:30:28.847Z,272.00
2019-03-13T12:31:28.641Z,228.00
2019-03-13T12:32:28.645Z,220.00
2019-03-13T12:34:28.637Z,260.00
2019-03-13T12:35:28.821Z,232.00
2019-03-13T12:36:28.608Z,240.00
2019-03-13T12:37:28.606Z,244.00
2019-03-13T12:38:28.602Z,228.00
2019-03-13T12:39:28.590Z,252.00
2019-03-13T12:40:28.585Z,228.00
2019-03-13T12:41:28.591Z,312.00
2019-03-13T12:42:28.576Z,296.00
2019-03-13T12:43:28.589Z,336.00
2019-03-13T12:44:28.563Z,280.00
2019-03-13T12:45:28.589Z,232.00
2019-03-13T12:46:28.614Z,232.00
2019-03-13T12:47:28.537Z,244.00
2019-03-13T12:48:28.552Z,272.00
2019-03-13T12:49:28.539Z,320.00
2019-03-13T12:50:28.533Z,376.00
2019-03-13T12:51:28.564Z,432.00
2019-03-13T12:52:28.519Z,448.00
2019-03-13T12:53:28.501Z,408.00
2019-03-13T12:54:28.501Z,476.00